createdAt,value
2023-03-15T00:01:37.135Z,96287.88
2023-03-15T00:04:05.856Z,96292.13
2023-03-15T00:06:34.543Z,96299.25
2023-03-15T00:09:03.083Z,96297.63
2023-03-15T00:11:32.410Z,96294.88
2023-03-15T00:14:01.875Z,96278.19
2023-03-15T00:16:29.605Z,96275.53
2023-03-15T00:18:57.613Z,96278.59
2023-03-15T00:21:25.473Z,96293.09
2023-03-15T00:23:53.264Z,96310.25
2023-03-15T00:26:20.818Z,96321.91
2023-03-15T00:28:49.813Z,96324.91
2023-03-15T00:31:18.876Z,96335.88
2023-03-15T00:33:47.151Z,96340.66
2023-03-15T00:36:15.140Z,96346.69
2023-03-15T00:38:44.066Z,96355.31
2023-03-15T00:41:13.824Z,96354.09
2023-03-15T00:43:41.580Z,96365.63
2023-03-15T00:46:11.199Z,96368.06
2023-03-15T00:48:39.526Z,96361.78
2023-03-15T00:51:08.630Z,96364.78
2023-03-15T00:53:37.226Z,96367.38
2023-03-15T00:56:06.180Z,96360.81
2023-03-15T00:58:33.795Z,96366.81
2023-03-15T01:01:01.789Z,96369.72
2023-03-15T01:03:30.792Z,96368.34
2023-03-15T01:05:58.375Z,96374.50
2023-03-15T01:08:26.046Z,96376.56
2023-03-15T01:10:53.622Z,96382.06
2023-03-15T01:13:21.213Z,96379.03
2023-03-15T01:15:48.855Z,96380.00
2023-03-15T01:18:16.450Z,96362.59
2023-03-15T01:20:45.951Z,96368.34
2023-03-15T01:23:13.530Z,96376.56
2023-03-15T01:25:41.754Z,96361.38
2023-03-15T01:28:09.370Z,96377.13
2023-03-15T01:30:37.016Z,96380.69
2023-03-15T01:33:04.774Z,96380.00
2023-03-15T01:35:32.448Z,96377.28
2023-03-15T01:38:01.382Z,96383.56
2023-03-15T01:40:29.221Z,96380.97
2023-03-15T01:43:15.665Z,96379.44
2023-03-15T01:46:08.491Z,96366.41
2023-03-15T01:48:38.642Z,96376.00
2023-03-15T01:51:10.565Z,96369.44
2023-03-15T01:53:40.782Z,96377.94
2023-03-15T01:56:08.949Z,96387.25
2023-03-15T01:58:37.665Z,96384.66
2023-03-15T02:01:05.749Z,96393.31
2023-03-15T02:03:36.538Z,96388.66
2023-03-15T02:06:07.016Z,96395.22
2023-03-15T02:08:40.979Z,96401.94
2023-03-15T02:11:08.596Z,96401.94
2023-03-15T02:13:36.654Z,96408.53
2023-03-15T02:16:06.838Z,96410.28
2023-03-15T02:18:36.617Z,96428.94
2023-03-15T02:21:10.047Z,96432.75
2023-03-15T02:23:39.006Z,96441.94
2023-03-15T02:26:15.846Z,96438.94
2023-03-15T02:28:45.016Z,96439.50
2023-03-15T02:31:12.729Z,96460.06
2023-03-15T02:33:43.764Z,96459.50
2023-03-15T02:36:16.081Z,96459.78
2023-03-15T02:38:43.694Z,96464.84
2023-03-15T02:41:11.680Z,96462.78
2023-03-15T02:43:40.548Z,96467.44
2023-03-15T02:46:10.109Z,96481.03
2023-03-15T02:48:38.972Z,96492.06
2023-03-15T02:51:07.064Z,96490.84
2023-03-15T02:53:35.002Z,96495.34
2023-03-15T02:56:03.514Z,96511.47
2023-03-15T02:58:32.354Z,96509.97
2023-03-15T03:00:59.981Z,96509.56
2023-03-15T03:03:29.021Z,96524.38
2023-03-15T03:05:56.596Z,96527.34
2023-03-15T03:08:24.198Z,96530.66
2023-03-15T03:10:51.799Z,96536.28
2023-03-15T03:13:19.413Z,96550.09
2023-03-15T03:15:46.996Z,96539.13
2023-03-15T03:18:14.800Z,96539.69
2023-03-15T03:20:46.164Z,96537.91
2023-03-15T03:23:13.824Z,96547.22
2023-03-15T03:25:41.476Z,96549.81
2023-03-15T03:28:09.095Z,96562.69
2023-03-15T03:30:37.582Z,96574.88
2023-03-15T03:33:05.779Z,96577.91
2023-03-15T03:35:33.574Z,96581.31
2023-03-15T03:38:02.527Z,96590.53
2023-03-15T03:40:30.110Z,96586.00
2023-03-15T03:42:57.722Z,96596.16
2023-03-15T03:45:25.478Z,96610.91
2023-03-15T03:47:53.116Z,96601.06
2023-03-15T03:50:21.138Z,96610.22
2023-03-15T03:52:48.735Z,96622.28
2023-03-15T03:55:17.858Z,96626.78
2023-03-15T03:57:45.479Z,96629.53
2023-03-15T04:00:15.525Z,96638.28
2023-03-15T04:02:43.774Z,96643.34
2023-03-15T04:05:12.228Z,96647.22
2023-03-15T04:07:39.831Z,96647.75
2023-03-15T04:10:08.061Z,96660.50
2023-03-15T04:12:37.031Z,96660.75
2023-03-15T04:15:05.190Z,96662.66
2023-03-15T04:17:32.760Z,96666.06
2023-03-15T04:20:05.124Z,96669.53
2023-03-15T04:22:34.806Z,96678.28
2023-03-15T04:25:03.041Z,96679.78
2023-03-15T04:27:30.656Z,96692.69
2023-03-15T04:29:59.656Z,96690.34
2023-03-15T04:32:27.242Z,96686.53
2023-03-15T04:34:55.905Z,96693.91
2023-03-15T04:37:23.525Z,96698.84
2023-03-15T04:39:52.620Z,96699.41
2023-03-15T04:42:20.279Z,96704.06
2023-03-15T04:44:47.915Z,96701.44
2023-03-15T04:47:16.929Z,96705.44
2023-03-15T04:49:44.525Z,96716.13
2023-03-15T04:52:12.391Z,96729.38
2023-03-15T04:54:40.506Z,96732.47
2023-03-15T04:57:08.356Z,96742.94
2023-03-15T04:59:35.919Z,96749.34
2023-03-15T05:02:04.121Z,96745.94
2023-03-15T05:04:33.184Z,96757.31
2023-03-15T05:07:00.824Z,96755.19
2023-03-15T05:09:28.431Z,96760.97
2023-03-15T05:11:56.022Z,96766.53
2023-03-15T05:14:23.691Z,96763.47
2023-03-15T05:16:55.912Z,96766.84
2023-03-15T05:19:23.567Z,96776.78
2023-03-15T05:21:54.634Z,96783.28
2023-03-15T05:24:22.314Z,96793.00
2023-03-15T05:26:49.995Z,96795.13
2023-03-15T05:29:17.622Z,96810.28
2023-03-15T05:31:45.285Z,96812.19
2023-03-15T05:34:13.183Z,96808.38
2023-03-15T05:36:41.855Z,96815.59
2023-03-15T05:39:11.437Z,96828.34
2023-03-15T05:41:39.040Z,96825.66
2023-03-15T05:44:06.621Z,96830.84
2023-03-15T05:46:34.305Z,96833.69
2023-03-15T05:49:01.949Z,96835.00
2023-03-15T05:51:29.797Z,96843.13
2023-03-15T05:53:57.400Z,96843.50
2023-03-15T05:56:26.464Z,96850.81
2023-03-15T05:58:54.085Z,96850.59
2023-03-15T06:01:21.780Z,96862.50
2023-03-15T06:03:49.489Z,96870.31
2023-03-15T06:06:17.229Z,96874.09
2023-03-15T06:08:44.811Z,96878.25
2023-03-15T06:11:12.497Z,96875.19
2023-03-15T06:13:41.479Z,96889.22
2023-03-15T06:16:09.106Z,96888.06
2023-03-15T06:18:36.777Z,96889.34
2023-03-15T06:21:04.399Z,96896.81
2023-03-15T06:23:31.999Z,96900.34
2023-03-15T06:25:59.651Z,96903.31
2023-03-15T06:28:27.301Z,96902.25
2023-03-15T06:30:56.257Z,96908.63
2023-03-15T06:33:24.369Z,96908.28
2023-03-15T06:35:52.025Z,96909.00
2023-03-15T06:38:19.616Z,96914.75
2023-03-15T06:40:47.205Z,96920.56
2023-03-15T06:43:19.430Z,96923.53
2023-03-15T06:45:47.400Z,96923.41
2023-03-15T06:48:16.444Z,96921.25
2023-03-15T06:50:47.358Z,96914.53
2023-03-15T06:53:16.421Z,96923.03
2023-03-15T06:55:44.094Z,96938.06
2023-03-15T06:58:12.185Z,96941.13
2023-03-15T07:00:39.777Z,96939.56
2023-03-15T07:03:07.386Z,96936.78
2023-03-15T07:05:37.238Z,96937.72
2023-03-15T07:08:05.149Z,96945.69
2023-03-15T07:10:32.746Z,96944.22
2023-03-15T07:13:00.464Z,96940.78
2023-03-15T07:15:28.477Z,96941.88
2023-03-15T07:17:56.080Z,96934.81
2023-03-15T07:20:23.810Z,96927.56
2023-03-15T07:22:52.906Z,96939.44
2023-03-15T07:25:24.018Z,96937.94
2023-03-15T07:27:51.824Z,96938.00
2023-03-15T07:30:19.849Z,96938.47
2023-03-15T07:32:47.941Z,96947.91
2023-03-15T07:35:16.937Z,96951.31
2023-03-15T07:37:44.996Z,96949.88
2023-03-15T07:40:16.211Z,96951.06
2023-03-15T07:42:44.452Z,96948.03
2023-03-15T07:45:12.760Z,96948.28
2023-03-15T07:47:40.961Z,96961.63
2023-03-15T07:50:09.697Z,96953.53
2023-03-15T07:52:37.270Z,96954.72
2023-03-15T07:55:08.429Z,96957.94
2023-03-15T07:57:37.459Z,96956.00
2023-03-15T08:00:06.848Z,96969.44
2023-03-15T08:02:34.491Z,96962.91
2023-03-15T08:05:02.137Z,96960.63
2023-03-15T08:07:29.733Z,96948.66
2023-03-15T08:09:57.994Z,96952.06
2023-03-15T08:12:25.829Z,96964.25
2023-03-15T08:14:54.811Z,96959.06
2023-03-15T08:17:22.596Z,96958.63
2023-03-15T08:19:50.278Z,96953.38
2023-03-15T08:22:17.954Z,96947.28
2023-03-15T08:24:45.970Z,96957.28
2023-03-15T08:27:13.558Z,96953.47
2023-03-15T08:29:41.496Z,96954.13
2023-03-15T08:32:10.899Z,96952.19
2023-03-15T08:34:38.838Z,96951.06
2023-03-15T08:37:06.430Z,96949.06
2023-03-15T08:39:36.328Z,96949.41
2023-03-15T08:42:04.069Z,96955.53
2023-03-15T08:44:31.827Z,96961.66
2023-03-15T08:46:59.540Z,96955.03
2023-03-15T08:49:28.730Z,96962.47
2023-03-15T08:51:56.320Z,96972.69
2023-03-15T08:54:25.615Z,96973.38
2023-03-15T08:56:53.177Z,96976.16
2023-03-15T08:59:31.507Z,96977.81
2023-03-15T09:02:00.924Z,96972.13
2023-03-15T09:04:30.145Z,96973.63
2023-03-15T09:06:57.854Z,96967.13
2023-03-15T09:09:25.743Z,96978.47
2023-03-15T09:11:53.317Z,96975.38
2023-03-15T09:14:21.277Z,96985.34
2023-03-15T09:16:49.014Z,96974.00
2023-03-15T09:19:17.759Z,96980.44
2023-03-15T09:21:47.188Z,96984.50
2023-03-15T09:24:15.145Z,96974.78
2023-03-15T09:26:42.760Z,96985.72
2023-03-15T09:29:10.405Z,96991.81
2023-03-15T09:31:38.008Z,96989.94
2023-03-15T09:34:05.964Z,96996.59
2023-03-15T09:36:33.692Z,96991.88
2023-03-15T09:39:02.889Z,96994.78
2023-03-15T09:41:42.213Z,96995.31
2023-03-15T09:44:15.714Z,97001.63
2023-03-15T09:46:54.816Z,97001.16
2023-03-15T09:49:35.482Z,97011.03
2023-03-15T09:52:05.723Z,97006.91
2023-03-15T09:54:41.163Z,97003.56
2023-03-15T09:57:14.368Z,97014.22
2023-03-15T09:59:44.393Z,97013.78
2023-03-15T10:02:19.223Z,97016.78
2023-03-15T10:04:47.550Z,97018.53
2023-03-15T10:07:16.566Z,97019.03
2023-03-15T10:09:46.612Z,97011.03
2023-03-15T10:12:16.282Z,97015.47
2023-03-15T10:14:57.657Z,97012.81
2023-03-15T10:17:32.014Z,97017.47
2023-03-15T10:20:01.994Z,97017.63
2023-03-15T10:22:33.904Z,97014.72
2023-03-15T10:25:06.097Z,97016.38
2023-03-15T10:27:39.110Z,97023.56
2023-03-15T10:30:16.645Z,97019.06
2023-03-15T10:32:45.950Z,97017.53
2023-03-15T10:35:15.926Z,97017.50
2023-03-15T10:37:43.894Z,97015.44
2023-03-15T10:40:16.230Z,97014.72
2023-03-15T10:42:45.300Z,97010.84
2023-03-15T10:45:24.274Z,97005.19
2023-03-15T10:48:00.465Z,96999.53
2023-03-15T10:50:30.315Z,97003.41
2023-03-15T10:52:59.327Z,97006.56
2023-03-15T10:55:33.241Z,97007.47
2023-03-15T10:58:14.842Z,96995.81
2023-03-15T11:00:50.666Z,96999.53
2023-03-15T11:03:20.197Z,96993.41
2023-03-15T11:05:49.396Z,96989.47
2023-03-15T11:08:19.013Z,96985.84
2023-03-15T11:10:56.711Z,96967.63
2023-03-15T11:13:25.840Z,96983.28
2023-03-15T11:16:04.144Z,96980.63
2023-03-15T11:18:35.240Z,96973.59
2023-03-15T11:21:06.174Z,96972.81
2023-03-15T11:23:36.801Z,96970.41
2023-03-15T11:26:06.262Z,96971.81
2023-03-15T11:28:37.132Z,96976.47
2023-03-15T11:31:05.353Z,96973.69
2023-03-15T11:33:39.702Z,96980.59
2023-03-15T11:36:12.416Z,96981.50
2023-03-15T11:38:43.866Z,96977.84
2023-03-15T11:41:22.181Z,96978.03
2023-03-15T11:43:56.692Z,96975.03
2023-03-15T11:46:28.844Z,96974.56
2023-03-15T11:49:00.010Z,96968.38
2023-03-15T11:51:27.740Z,96960.97
2023-03-15T11:54:05.492Z,96951.88
2023-03-15T11:56:49.533Z,96947.50
2023-03-15T11:59:18.666Z,96954.53
2023-03-15T12:01:48.422Z,96939.72
2023-03-15T12:04:42.423Z,96941.47
2023-03-15T12:07:34.558Z,96938.13
2023-03-15T12:10:33.729Z,96938.06
2023-03-15T12:13:09.149Z,96936.31
2023-03-15T12:15:47.948Z,96935.41
2023-03-15T12:18:21.343Z,96930.66
2023-03-15T12:20:57.637Z,96934.84
2023-03-15T12:23:38.325Z,96933.41
2023-03-15T12:26:11.874Z,96942.59
2023-03-15T12:28:44.936Z,96940.53
2023-03-15T12:31:14.580Z,96940.25
2023-03-15T12:33:47.877Z,96934.09
2023-03-15T12:36:31.041Z,96929.31
2023-03-15T12:39:04.422Z,96939.25
2023-03-15T12:41:42.387Z,96939.84
2023-03-15T12:44:25.233Z,96941.69
2023-03-15T12:47:00.275Z,96951.97
2023-03-15T12:49:36.806Z,96945.66
2023-03-15T12:52:07.429Z,96955.78
2023-03-15T12:54:41.405Z,96953.25
2023-03-15T12:57:11.797Z,96947.63
2023-03-15T12:59:44.266Z,96960.72
2023-03-15T13:02:35.867Z,96962.38
2023-03-15T13:05:19.034Z,96973.69
2023-03-15T13:07:55.898Z,96967.09
2023-03-15T13:10:39.741Z,96973.28
2023-03-15T13:13:33.813Z,96966.09
2023-03-15T13:16:15.342Z,96989.66
2023-03-15T13:18:49.664Z,96983.53
2023-03-15T13:21:21.256Z,96985.41
2023-03-15T13:23:51.977Z,96986.59
2023-03-15T13:26:35.419Z,96987.19
2023-03-15T13:29:09.216Z,96977.31
2023-03-15T13:31:38.591Z,96983.16
2023-03-15T13:34:13.747Z,96988.75
2023-03-15T13:36:45.931Z,96975.13
2023-03-15T13:39:20.071Z,96996.97
2023-03-15T13:41:47.819Z,96987.22
2023-03-15T13:44:19.797Z,96991.47
2023-03-15T13:46:49.882Z,96998.06
2023-03-15T13:49:18.521Z,97002.84
2023-03-15T13:51:47.300Z,96994.53
2023-03-15T13:54:18.224Z,96996.66
2023-03-15T13:56:56.713Z,96993.09
2023-03-15T13:59:25.187Z,96997.56
2023-03-15T14:01:55.064Z,97001.25
2023-03-15T14:04:23.400Z,97002.16
2023-03-15T14:06:51.184Z,96999.00
2023-03-15T14:09:21.501Z,97005.50
2023-03-15T14:12:02.453Z,97003.75
2023-03-15T14:14:31.438Z,97001.56
2023-03-15T14:17:05.953Z,97007.47
2023-03-15T14:19:35.855Z,97004.50
2023-03-15T14:22:05.716Z,97027.75
2023-03-15T14:24:36.808Z,97017.63
2023-03-15T14:27:07.870Z,97026.94
2023-03-15T14:29:36.907Z,97024.31
2023-03-15T14:32:08.885Z,97029.63
2023-03-15T14:34:38.845Z,97028.84
2023-03-15T14:37:10.604Z,97043.63
2023-03-15T14:39:40.335Z,97032.59
2023-03-15T14:42:08.505Z,97030.34
2023-03-15T14:44:36.128Z,97032.78
2023-03-15T14:47:07.308Z,97035.88
2023-03-15T14:49:36.400Z,97028.31
2023-03-15T14:52:05.661Z,97023.75
2023-03-15T14:54:33.859Z,97020.72
2023-03-15T14:57:01.462Z,97020.44
2023-03-15T14:59:29.075Z,97019.91
2023-03-15T15:01:59.177Z,97023.19
2023-03-15T15:04:31.214Z,97025.81
2023-03-15T15:07:03.043Z,97029.63
2023-03-15T15:09:31.640Z,97011.31
2023-03-15T15:11:59.248Z,97028.13
2023-03-15T15:14:26.892Z,97019.03
2023-03-15T15:16:54.606Z,97030.13
2023-03-15T15:19:22.303Z,97026.94
2023-03-15T15:21:49.885Z,97030.66
2023-03-15T15:24:21.176Z,97032.47
2023-03-15T15:26:48.917Z,97025.38
2023-03-15T15:29:17.401Z,97022.94
2023-03-15T15:31:46.029Z,97027.25
2023-03-15T15:34:14.030Z,97036.75
2023-03-15T15:36:43.698Z,97027.41
2023-03-15T15:39:17.579Z,97025.19
2023-03-15T15:41:46.789Z,97035.75
2023-03-15T15:44:16.928Z,97025.44
2023-03-15T15:46:44.628Z,97036.06
2023-03-15T15:49:12.542Z,97032.91
2023-03-15T15:51:42.858Z,97038.06
2023-03-15T15:54:15.217Z,97040.53
2023-03-15T15:56:48.896Z,97038.63
2023-03-15T15:59:18.415Z,97030.38
2023-03-15T16:01:59.453Z,97033.25
2023-03-15T16:04:29.153Z,97044.91
2023-03-15T16:06:58.632Z,97049.25
2023-03-15T16:09:26.933Z,97042.94
2023-03-15T16:11:56.251Z,97051.69
2023-03-15T16:14:25.282Z,97055.53
2023-03-15T16:16:52.882Z,97057.88
2023-03-15T16:19:20.562Z,97056.34
2023-03-15T16:21:50.058Z,97058.41
2023-03-15T16:24:20.971Z,97065.66
2023-03-15T16:26:49.562Z,97072.19
2023-03-15T16:29:20.397Z,97076.00
2023-03-15T16:31:48.839Z,97080.13
2023-03-15T16:34:18.520Z,97082.91
2023-03-15T16:36:49.780Z,97078.50
2023-03-15T16:39:18.096Z,97085.72
2023-03-15T16:41:45.916Z,97086.59
2023-03-15T16:44:14.458Z,97092.19
2023-03-15T16:46:43.722Z,97093.28
2023-03-15T16:49:13.211Z,97096.34
2023-03-15T16:51:43.740Z,97104.47
2023-03-15T16:57:01.377Z,97120.88
2023-03-15T16:59:29.532Z,97122.34
2023-03-15T17:01:59.066Z,97124.03
2023-03-15T17:04:26.683Z,97120.84
2023-03-15T17:06:54.330Z,97128.91
2023-03-15T17:09:23.260Z,97117.13
2023-03-15T17:11:52.963Z,97134.41
2023-03-15T17:14:23.562Z,97148.41
2023-03-15T17:16:51.346Z,97142.88
2023-03-15T17:19:20.362Z,97156.97
2023-03-15T17:21:48.367Z,97154.38
2023-03-15T17:24:16.273Z,97161.03
2023-03-15T17:26:43.851Z,97166.91
2023-03-15T17:29:17.781Z,97169.28
2023-03-15T17:31:45.554Z,97172.13
2023-03-15T17:34:13.188Z,97172.00
2023-03-15T17:36:42.291Z,97176.03
2023-03-15T17:39:15.668Z,97171.06
2023-03-15T17:41:46.980Z,97185.16
2023-03-15T17:44:14.703Z,97188.56
2023-03-15T17:46:43.035Z,97187.25
2023-03-15T17:49:13.008Z,97201.44
2023-03-15T17:51:42.169Z,97204.53
2023-03-15T17:54:13.833Z,97207.72
2023-03-15T17:56:42.046Z,97203.41
2023-03-15T17:59:12.063Z,97205.22
2023-03-15T18:01:40.933Z,97218.56
2023-03-15T18:04:11.334Z,97224.88
2023-03-15T18:06:39.041Z,97226.63
2023-03-15T18:09:07.997Z,97221.09
2023-03-15T18:11:36.817Z,97236.13
2023-03-15T18:14:05.159Z,97221.22
2023-03-15T18:16:33.183Z,97239.38
2023-03-15T18:19:00.837Z,97236.16
2023-03-15T18:21:28.633Z,97240.19
2023-03-15T18:23:56.631Z,97234.03
2023-03-15T18:26:25.568Z,97245.31
2023-03-15T18:28:53.224Z,97249.44
2023-03-15T18:31:22.584Z,97242.94
2023-03-15T18:33:51.209Z,97249.09
2023-03-15T18:36:19.645Z,97243.66
2023-03-15T18:38:47.559Z,97243.66
2023-03-15T18:41:20.477Z,97259.44
2023-03-15T18:43:51.381Z,97266.88
2023-03-15T18:46:19.743Z,97272.78
2023-03-15T18:48:47.685Z,97278.75
2023-03-15T18:51:16.063Z,97284.63
2023-03-15T18:53:45.369Z,97276.78
2023-03-15T18:56:17.269Z,97280.97
2023-03-15T18:58:44.883Z,97282.28
2023-03-15T19:01:13.893Z,97289.06
2023-03-15T19:03:41.565Z,97294.97
2023-03-15T19:06:11.483Z,97280.53
2023-03-15T19:08:39.506Z,97288.84
2023-03-15T19:11:10.506Z,97296.81
2023-03-15T19:13:38.281Z,97305.34
2023-03-15T19:16:06.868Z,97305.84
2023-03-15T19:18:35.947Z,97309.38
2023-03-15T19:21:03.561Z,97309.16
2023-03-15T19:23:31.993Z,97308.97
2023-03-15T19:25:59.588Z,97311.09
2023-03-15T19:28:27.238Z,97312.75
2023-03-15T19:30:54.920Z,97322.22
2023-03-15T19:33:22.591Z,97311.31
2023-03-15T19:35:51.749Z,97316.06
2023-03-15T19:38:20.002Z,97311.59
2023-03-15T19:40:47.590Z,97318.44
2023-03-15T19:43:15.954Z,97318.81
2023-03-15T19:45:43.880Z,97318.91
2023-03-15T19:48:11.442Z,97314.81
2023-03-15T19:50:39.323Z,97316.69
2023-03-15T19:53:08.439Z,97325.44
2023-03-15T19:55:36.489Z,97320.78
2023-03-15T19:58:04.315Z,97311.97
2023-03-15T20:00:31.922Z,97323.63
2023-03-15T20:02:59.904Z,97319.06
2023-03-15T20:05:27.617Z,97327.59
2023-03-15T20:07:55.293Z,97331.00
2023-03-15T20:10:24.591Z,97330.81
2023-03-15T20:12:52.310Z,97329.00
2023-03-15T20:15:21.045Z,97336.16
2023-03-15T20:17:48.739Z,97340.94
2023-03-15T20:20:16.363Z,97342.97
2023-03-15T20:22:45.547Z,97349.72
2023-03-15T20:25:13.914Z,97356.59
2023-03-15T20:27:43.098Z,97360.84
2023-03-15T20:30:12.486Z,97365.41
2023-03-15T20:32:40.207Z,97361.34
2023-03-15T20:35:09.385Z,97360.84
2023-03-15T20:37:40.543Z,97375.28
2023-03-15T20:40:10.757Z,97371.53
2023-03-15T20:42:38.588Z,97378.59
2023-03-15T20:45:09.668Z,97383.69
2023-03-15T20:47:41.357Z,97383.59
2023-03-15T20:50:11.527Z,97384.72
2023-03-15T20:52:39.417Z,97394.59
2023-03-15T20:55:08.077Z,97395.44
2023-03-15T20:57:36.417Z,97395.22
2023-03-15T21:00:12.230Z,97403.31
2023-03-15T21:02:41.333Z,97403.75
2023-03-15T21:05:10.079Z,97403.72
2023-03-15T21:07:38.318Z,97409.84
2023-03-15T21:10:07.018Z,97413.06
2023-03-15T21:12:34.655Z,97405.34
2023-03-15T21:15:02.933Z,97415.00
2023-03-15T21:17:30.545Z,97419.56
2023-03-15T21:19:59.598Z,97416.06
2023-03-15T21:22:27.200Z,97414.03
2023-03-15T21:24:56.311Z,97408.09
2023-03-15T21:27:26.122Z,97420.34
2023-03-15T21:29:54.511Z,97412.66
2023-03-15T21:32:22.200Z,97423.69
2023-03-15T21:34:49.795Z,97411.41
2023-03-15T21:37:18.851Z,97417.22
2023-03-15T21:39:46.555Z,97421.47
2023-03-15T21:42:14.170Z,97417.41
2023-03-15T21:44:41.863Z,97416.16
2023-03-15T21:47:09.658Z,97419.75
2023-03-15T21:49:37.897Z,97415.41
2023-03-15T21:52:05.542Z,97423.66
2023-03-15T21:54:34.701Z,97421.19
2023-03-15T21:57:02.281Z,97424.13
2023-03-15T21:59:29.933Z,97422.47
2023-03-15T22:01:58.088Z,97413.34
2023-03-15T22:04:25.797Z,97431.38
2023-03-15T22:06:53.465Z,97425.38
2023-03-15T22:09:23.179Z,97427.13
2023-03-15T22:11:52.164Z,97434.38
2023-03-15T22:14:19.836Z,97429.56
2023-03-15T22:16:47.429Z,97429.56
2023-03-15T22:19:15.002Z,97434.75
2023-03-15T22:21:42.602Z,97437.41
2023-03-15T22:24:10.269Z,97430.25
2023-03-15T22:26:38.106Z,97430.84
2023-03-15T22:29:07.429Z,97442.91
2023-03-15T22:31:37.641Z,97448.91
2023-03-15T22:34:05.266Z,97449.03
2023-03-15T22:36:33.804Z,97455.03
2023-03-15T22:39:01.633Z,97454.50
2023-03-15T22:41:29.214Z,97448.28
2023-03-15T22:43:57.690Z,97445.22
2023-03-15T22:46:27.012Z,97451.41
2023-03-15T22:48:54.954Z,97454.88
2023-03-15T22:51:22.796Z,97449.22
2023-03-15T22:53:50.448Z,97460.69
2023-03-15T22:56:18.188Z,97451.88
2023-03-15T22:58:47.235Z,97451.25
2023-03-15T23:01:14.864Z,97455.13
2023-03-15T23:03:43.829Z,97453.47
2023-03-15T23:06:11.837Z,97455.47
2023-03-15T23:08:39.479Z,97453.91
2023-03-15T23:11:07.103Z,97457.16
2023-03-15T23:13:34.879Z,97451.22
2023-03-15T23:16:04.280Z,97457.69
2023-03-15T23:18:34.176Z,97446.09
2023-03-15T23:21:07.695Z,97448.97
2023-03-15T23:23:35.378Z,97444.06
2023-03-15T23:26:03.869Z,97454.25
2023-03-15T23:28:31.949Z,97458.41
2023-03-15T23:31:01.386Z,97448.41
2023-03-15T23:33:29.948Z,97450.16
2023-03-15T23:35:57.846Z,97456.94
2023-03-15T23:38:27.129Z,97474.22
2023-03-15T23:40:55.179Z,97467.13
2023-03-15T23:43:22.845Z,97471.94
2023-03-15T23:45:55.659Z,97475.28
2023-03-15T23:48:23.630Z,97466.75
2023-03-15T23:50:54.647Z,97478.34
2023-03-15T23:53:22.717Z,97481.69
2023-03-15T23:55:52.145Z,97477.38
2023-03-15T23:58:20.737Z,97473.47
